Portada
METAR-TAF:

METAR-TAF

Aeroports :

Fort-de-France, Martinica

latitud: 14-36N, longitud: 061-00W, altitud: 5 m

Observació

L'informe es va fer fa 36 minuts, a les 15:30 UTC
Vent 12 kt del Est/Sud-Est
Temperatura 30°C
Humitat 66%
Pressió 1012 hPa
Visibilitat 10 km o més
Escasses núvols a una alçada de 2900 ft

METAR: TFFF 231530Z AUTO 11012KT 9999 FEW029 30/23 Q1012 NOSIG

Hora: 12:06 (16:06 UTC)

Pronòstic

L'informe es va fer fa 5 hores i 6 minuts, a les 11:00 UTC
Pronòstic vàlid del 23 a les 12 UTC al 24 a les 12 UTC
Vent 8 kt del Est
Visibilitat 10 km o més
Núvols disperses a una alçada de 2500 ft
Evolucionant progressivament
l' 23 a les 22 UTC al 23 a les 24 UTC
Vent 3 kt amb direcció variable

TAF: TFFF 231100Z 2312/2412 08008KT 9999 SCT025 BECMG 2322/2324 VRB03KT

Observacions i pronòstics meteorològics de més de 4000 aeroports (METAR i TAF).

Les estacions disponibles són els punts grocs i vermells al mapa.

Posi el ratolí al punt desitjat per veure el nom de l'estació.

Feu clic per veure les observacions i els pronòstics meteorològics.

Per canviar el mapa: feu clic els botons verds amb una creu de color negre per apropar; al botó verd amb un guió per allunyar la imatge; o en les fletxes verdes per a mapes adjacents.


METAR-TAF: